sensor_id;sensor_type;location;lat;lon;timestamp;P1;durP1;ratioP1;P2;durP2;ratioP2
77938;SDS011;67136;47.546;21.630;2023-05-14T00:03:00;10.60;;;6.43;;
77938;SDS011;67136;47.546;21.630;2023-05-14T00:06:07;9.95;;;6.53;;
77938;SDS011;67136;47.546;21.630;2023-05-14T00:09:41;11.17;;;6.30;;
77938;SDS011;67136;47.546;21.630;2023-05-14T00:13:19;9.10;;;6.67;;
77938;SDS011;67136;47.546;21.630;2023-05-14T00:16:33;12.45;;;6.53;;
77938;SDS011;67136;47.546;21.630;2023-05-14T00:20:14;9.52;;;6.35;;
77938;SDS011;67136;47.546;21.630;2023-05-14T00:26:57;12.13;;;6.73;;
77938;SDS011;67136;47.546;21.630;2023-05-14T00:30:17;10.20;;;5.97;;
77938;SDS011;67136;47.546;21.630;2023-05-14T00:33:39;19.65;;;6.87;;
77938;SDS011;67136;47.546;21.630;2023-05-14T00:37:19;10.95;;;6.62;;
77938;SDS011;67136;47.546;21.630;2023-05-14T00:40:57;10.02;;;6.75;;
77938;SDS011;67136;47.546;21.630;2023-05-14T00:44:05;12.47;;;7.47;;
77938;SDS011;67136;47.546;21.630;2023-05-14T00:47:22;11.47;;;6.27;;
77938;SDS011;67136;47.546;21.630;2023-05-14T00:51:05;9.20;;;6.65;;
77938;SDS011;67136;47.546;21.630;2023-05-14T00:54:32;13.73;;;7.00;;
77938;SDS011;67136;47.546;21.630;2023-05-14T00:58:26;9.60;;;6.35;;
77938;SDS011;67136;47.546;21.630;2023-05-14T01:01:49;9.20;;;6.33;;
77938;SDS011;67136;47.546;21.630;2023-05-14T01:05:08;10.53;;;6.63;;
77938;SDS011;67136;47.546;21.630;2023-05-14T01:09:04;12.10;;;6.93;;
77938;SDS011;67136;47.546;21.630;2023-05-14T01:16:27;9.13;;;6.22;;
77938;SDS011;67136;47.546;21.630;2023-05-14T01:20:06;11.00;;;6.43;;
77938;SDS011;67136;47.546;21.630;2023-05-14T01:23:29;14.70;;;7.00;;
77938;SDS011;67136;47.546;21.630;2023-05-14T01:26:53;10.85;;;7.05;;
77938;SDS011;67136;47.546;21.630;2023-05-14T01:30:09;12.55;;;7.65;;
77938;SDS011;67136;47.546;21.630;2023-05-14T01:33:26;9.30;;;6.47;;
77938;SDS011;67136;47.546;21.630;2023-05-14T01:37:08;8.90;;;6.43;;
77938;SDS011;67136;47.546;21.630;2023-05-14T01:40:30;11.87;;;6.83;;
77938;SDS011;67136;47.546;21.630;2023-05-14T01:43:42;10.27;;;6.32;;
77938;SDS011;67136;47.546;21.630;2023-05-14T01:46:57;9.93;;;6.15;;
77938;SDS011;67136;47.546;21.630;2023-05-14T01:50:12;10.35;;;6.28;;
77938;SDS011;67136;47.546;21.630;2023-05-14T01:53:41;11.57;;;6.27;;
77938;SDS011;67136;47.546;21.630;2023-05-14T01:56:48;11.27;;;6.47;;
77938;SDS011;67136;47.546;21.630;2023-05-14T02:00:35;10.80;;;6.60;;
77938;SDS011;67136;47.546;21.630;2023-05-14T02:04:05;10.15;;;6.65;;
77938;SDS011;67136;47.546;21.630;2023-05-14T02:07:39;11.75;;;6.62;;
77938;SDS011;67136;47.546;21.630;2023-05-14T02:11:15;12.73;;;7.00;;
77938;SDS011;67136;47.546;21.630;2023-05-14T02:14:34;9.60;;;6.57;;
77938;SDS011;67136;47.546;21.630;2023-05-14T02:18:01;11.25;;;6.05;;
77938;SDS011;67136;47.546;21.630;2023-05-14T02:21:12;9.75;;;6.20;;
77938;SDS011;67136;47.546;21.630;2023-05-14T02:24:51;8.57;;;6.18;;
77938;SDS011;67136;47.546;21.630;2023-05-14T02:27:56;10.43;;;6.10;;
77938;SDS011;67136;47.546;21.630;2023-05-14T02:31:30;11.70;;;6.30;;
77938;SDS011;67136;47.546;21.630;2023-05-14T02:34:53;10.82;;;6.43;;
77938;SDS011;67136;47.546;21.630;2023-05-14T02:38:04;11.23;;;6.05;;
77938;SDS011;67136;47.546;21.630;2023-05-14T02:41:28;9.55;;;6.32;;
77938;SDS011;67136;47.546;21.630;2023-05-14T02:44:44;10.53;;;6.40;;
77938;SDS011;67136;47.546;21.630;2023-05-14T02:48:21;9.23;;;5.90;;
77938;SDS011;67136;47.546;21.630;2023-05-14T02:51:51;9.27;;;5.97;;
77938;SDS011;67136;47.546;21.630;2023-05-14T02:55:29;10.27;;;6.85;;
77938;SDS011;67136;47.546;21.630;2023-05-14T02:58:42;9.75;;;6.03;;
77938;SDS011;67136;47.546;21.630;2023-05-14T03:02:04;9.80;;;6.13;;
77938;SDS011;67136;47.546;21.630;2023-05-14T03:05:30;9.10;;;6.03;;
77938;SDS011;67136;47.546;21.630;2023-05-14T03:09:08;10.40;;;6.78;;
77938;SDS011;67136;47.546;21.630;2023-05-14T03:12:48;9.73;;;6.43;;
77938;SDS011;67136;47.546;21.630;2023-05-14T03:16:15;10.77;;;6.37;;
77938;SDS011;67136;47.546;21.630;2023-05-14T03:19:29;9.70;;;6.50;;
77938;SDS011;67136;47.546;21.630;2023-05-14T03:23:05;9.43;;;6.70;;
77938;SDS011;67136;47.546;21.630;2023-05-14T03:26:18;10.38;;;6.57;;
77938;SDS011;67136;47.546;21.630;2023-05-14T03:29:46;15.68;;;6.60;;
77938;SDS011;67136;47.546;21.630;2023-05-14T03:33:19;9.50;;;6.07;;
77938;SDS011;67136;47.546;21.630;2023-05-14T03:36:30;13.67;;;6.47;;
77938;SDS011;67136;47.546;21.630;2023-05-14T03:39:36;7.93;;;5.37;;
77938;SDS011;67136;47.546;21.630;2023-05-14T03:46:42;12.15;;;6.00;;
77938;SDS011;67136;47.546;21.630;2023-05-14T03:50:00;8.73;;;5.72;;
77938;SDS011;67136;47.546;21.630;2023-05-14T03:53:22;7.17;;;5.47;;
77938;SDS011;67136;47.546;21.630;2023-05-14T03:56:50;7.93;;;5.60;;
77938;SDS011;67136;47.546;21.630;2023-05-14T04:03:20;8.95;;;5.37;;
77938;SDS011;67136;47.546;21.630;2023-05-14T04:06:39;9.75;;;5.87;;
77938;SDS011;67136;47.546;21.630;2023-05-14T04:10:05;8.23;;;5.90;;
77938;SDS011;67136;47.546;21.630;2023-05-14T04:13:44;8.77;;;4.97;;
77938;SDS011;67136;47.546;21.630;2023-05-14T04:17:11;9.38;;;5.32;;
77938;SDS011;67136;47.546;21.630;2023-05-14T04:20:28;9.57;;;5.30;;
77938;SDS011;67136;47.546;21.630;2023-05-14T04:23:53;9.55;;;5.30;;
77938;SDS011;67136;47.546;21.630;2023-05-14T04:27:23;7.93;;;5.17;;
77938;SDS011;67136;47.546;21.630;2023-05-14T04:30:47;8.63;;;5.27;;
77938;SDS011;67136;47.546;21.630;2023-05-14T04:34:07;7.90;;;5.25;;
77938;SDS011;67136;47.546;21.630;2023-05-14T04:41:28;9.32;;;5.30;;
77938;SDS011;67136;47.546;21.630;2023-05-14T04:45:01;12.03;;;5.20;;
77938;SDS011;67136;47.546;21.630;2023-05-14T04:48:23;7.27;;;4.27;;
77938;SDS011;67136;47.546;21.630;2023-05-14T04:52:04;9.18;;;4.93;;
77938;SDS011;67136;47.546;21.630;2023-05-14T04:55:28;7.95;;;5.75;;
77938;SDS011;67136;47.546;21.630;2023-05-14T04:59:09;7.87;;;5.22;;
77938;SDS011;67136;47.546;21.630;2023-05-14T05:02:33;7.57;;;4.60;;
77938;SDS011;67136;47.546;21.630;2023-05-14T05:05:58;9.23;;;5.00;;
77938;SDS011;67136;47.546;21.630;2023-05-14T05:09:30;8.70;;;5.10;;
77938;SDS011;67136;47.546;21.630;2023-05-14T05:12:45;8.65;;;5.53;;
77938;SDS011;67136;47.546;21.630;2023-05-14T05:16:20;10.48;;;5.35;;
77938;SDS011;67136;47.546;21.630;2023-05-14T05:19:33;10.00;;;5.27;;
77938;SDS011;67136;47.546;21.630;2023-05-14T05:23:21;8.27;;;5.10;;
77938;SDS011;67136;47.546;21.630;2023-05-14T05:26:32;7.15;;;4.57;;
77938;SDS011;67136;47.546;21.630;2023-05-14T05:30:12;7.78;;;4.32;;
77938;SDS011;67136;47.546;21.630;2023-05-14T05:37:16;9.83;;;4.90;;
77938;SDS011;67136;47.546;21.630;2023-05-14T05:40:37;7.17;;;4.30;;
77938;SDS011;67136;47.546;21.630;2023-05-14T05:43:46;9.20;;;4.68;;
77938;SDS011;67136;47.546;21.630;2023-05-14T05:47:12;8.75;;;4.47;;
77938;SDS011;67136;47.546;21.630;2023-05-14T05:50:23;6.18;;;3.87;;
77938;SDS011;67136;47.546;21.630;2023-05-14T05:53:50;7.80;;;4.43;;
77938;SDS011;67136;47.546;21.630;2023-05-14T05:57:14;6.03;;;4.00;;
77938;SDS011;67136;47.546;21.630;2023-05-14T06:00:22;6.07;;;3.70;;
77938;SDS011;67136;47.546;21.630;2023-05-14T06:03:47;5.45;;;3.65;;
77938;SDS011;67136;47.546;21.630;2023-05-14T06:06:52;6.28;;;3.58;;
77938;SDS011;67136;47.546;21.630;2023-05-14T06:10:03;3.65;;;3.30;;
77938;SDS011;67136;47.546;21.630;2023-05-14T06:13:12;4.27;;;3.33;;
77938;SDS011;67136;47.546;21.630;2023-05-14T06:16:42;4.43;;;3.25;;
77938;SDS011;67136;47.546;21.630;2023-05-14T06:20:09;5.60;;;3.53;;
77938;SDS011;67136;47.546;21.630;2023-05-14T06:23:21;5.80;;;3.28;;
77938;SDS011;67136;47.546;21.630;2023-05-14T06:27:23;5.57;;;3.30;;
77938;SDS011;67136;47.546;21.630;2023-05-14T06:30:26;4.90;;;3.80;;
77938;SDS011;67136;47.546;21.630;2023-05-14T06:33:46;5.00;;;3.30;;
77938;SDS011;67136;47.546;21.630;2023-05-14T06:36:57;5.60;;;3.65;;
77938;SDS011;67136;47.546;21.630;2023-05-14T06:40:10;4.40;;;3.15;;
77938;SDS011;67136;47.546;21.630;2023-05-14T06:43:45;5.70;;;3.62;;
77938;SDS011;67136;47.546;21.630;2023-05-14T06:46:56;7.10;;;3.40;;
77938;SDS011;67136;47.546;21.630;2023-05-14T06:50:19;7.25;;;3.42;;
77938;SDS011;67136;47.546;21.630;2023-05-14T06:53:40;6.85;;;3.65;;
77938;SDS011;67136;47.546;21.630;2023-05-14T06:56:49;7.15;;;3.80;;
77938;SDS011;67136;47.546;21.630;2023-05-14T06:59:57;5.12;;;3.30;;
77938;SDS011;67136;47.546;21.630;2023-05-14T07:03:20;4.40;;;3.27;;
77938;SDS011;67136;47.546;21.630;2023-05-14T07:06:27;6.95;;;3.55;;
77938;SDS011;67136;47.546;21.630;2023-05-14T07:09:40;4.50;;;3.53;;
77938;SDS011;67136;47.546;21.630;2023-05-14T07:12:54;6.05;;;3.50;;
77938;SDS011;67136;47.546;21.630;2023-05-14T07:16:11;5.78;;;3.42;;
77938;SDS011;67136;47.546;21.630;2023-05-14T07:19:24;4.17;;;3.10;;
77938;SDS011;67136;47.546;21.630;2023-05-14T07:22:53;6.12;;;3.45;;
77938;SDS011;67136;47.546;21.630;2023-05-14T07:26:05;4.30;;;3.30;;
77938;SDS011;67136;47.546;21.630;2023-05-14T07:29:25;4.70;;;3.15;;
77938;SDS011;67136;47.546;21.630;2023-05-14T07:32:33;6.57;;;3.50;;
77938;SDS011;67136;47.546;21.630;2023-05-14T07:36:07;6.73;;;3.03;;
77938;SDS011;67136;47.546;21.630;2023-05-14T07:39:29;4.22;;;3.10;;
77938;SDS011;67136;47.546;21.630;2023-05-14T07:42:50;5.75;;;3.42;;
77938;SDS011;67136;47.546;21.630;2023-05-14T07:46:16;5.12;;;3.20;;
77938;SDS011;67136;47.546;21.630;2023-05-14T07:49:52;6.10;;;3.05;;
77938;SDS011;67136;47.546;21.630;2023-05-14T07:53:07;4.37;;;2.70;;
77938;SDS011;67136;47.546;21.630;2023-05-14T07:56:34;4.45;;;2.50;;
77938;SDS011;67136;47.546;21.630;2023-05-14T07:59:43;5.30;;;2.80;;
77938;SDS011;67136;47.546;21.630;2023-05-14T08:03:13;4.55;;;2.47;;
77938;SDS011;67136;47.546;21.630;2023-05-14T08:06:32;4.57;;;2.40;;
77938;SDS011;67136;47.546;21.630;2023-05-14T08:09:49;3.43;;;2.30;;
77938;SDS011;67136;47.546;21.630;2023-05-14T08:12:55;3.75;;;2.53;;
77938;SDS011;67136;47.546;21.630;2023-05-14T08:16:12;5.85;;;2.40;;
77938;SDS011;67136;47.546;21.630;2023-05-14T08:19:24;3.08;;;2.00;;
77938;SDS011;67136;47.546;21.630;2023-05-14T08:22:50;3.90;;;2.25;;
77938;SDS011;67136;47.546;21.630;2023-05-14T08:29:49;8.45;;;2.75;;
77938;SDS011;67136;47.546;21.630;2023-05-14T08:33:15;3.87;;;2.00;;
77938;SDS011;67136;47.546;21.630;2023-05-14T08:36:29;4.15;;;2.12;;
77938;SDS011;67136;47.546;21.630;2023-05-14T08:39:55;2.60;;;1.83;;
77938;SDS011;67136;47.546;21.630;2023-05-14T08:43:01;3.07;;;2.33;;
77938;SDS011;67136;47.546;21.630;2023-05-14T08:46:26;3.33;;;2.22;;
77938;SDS011;67136;47.546;21.630;2023-05-14T08:50:08;2.90;;;2.30;;
77938;SDS011;67136;47.546;21.630;2023-05-14T08:53:33;4.22;;;2.20;;
77938;SDS011;67136;47.546;21.630;2023-05-14T08:56:51;8.20;;;2.10;;
77938;SDS011;67136;47.546;21.630;2023-05-14T09:00:12;2.70;;;2.33;;
77938;SDS011;67136;47.546;21.630;2023-05-14T09:03:40;5.65;;;2.20;;
77938;SDS011;67136;47.546;21.630;2023-05-14T09:06:54;4.05;;;2.15;;
77938;SDS011;67136;47.546;21.630;2023-05-14T09:13:52;2.67;;;1.92;;
77938;SDS011;67136;47.546;21.630;2023-05-14T09:17:19;3.97;;;2.10;;
77938;SDS011;67136;47.546;21.630;2023-05-14T09:20:29;5.37;;;1.90;;
77938;SDS011;67136;47.546;21.630;2023-05-14T09:23:46;4.18;;;2.10;;
77938;SDS011;67136;47.546;21.630;2023-05-14T09:27:00;2.72;;;1.85;;
77938;SDS011;67136;47.546;21.630;2023-05-14T09:33:55;3.13;;;2.03;;
77938;SDS011;67136;47.546;21.630;2023-05-14T09:37:11;3.65;;;1.83;;
77938;SDS011;67136;47.546;21.630;2023-05-14T09:40:22;6.55;;;2.30;;
77938;SDS011;67136;47.546;21.630;2023-05-14T09:43:41;4.78;;;2.00;;
77938;SDS011;67136;47.546;21.630;2023-05-14T09:46:49;3.40;;;1.80;;
77938;SDS011;67136;47.546;21.630;2023-05-14T09:50:19;3.33;;;2.00;;
77938;SDS011;67136;47.546;21.630;2023-05-14T09:53:31;3.75;;;1.70;;
77938;SDS011;67136;47.546;21.630;2023-05-14T09:56:39;5.70;;;1.87;;
77938;SDS011;67136;47.546;21.630;2023-05-14T09:59:52;4.10;;;1.65;;
77938;SDS011;67136;47.546;21.630;2023-05-14T10:03:21;4.12;;;1.87;;
77938;SDS011;67136;47.546;21.630;2023-05-14T10:06:46;4.57;;;2.40;;
77938;SDS011;67136;47.546;21.630;2023-05-14T10:10:17;3.10;;;1.95;;
77938;SDS011;67136;47.546;21.630;2023-05-14T10:13:32;3.08;;;1.87;;
77938;SDS011;67136;47.546;21.630;2023-05-14T10:16:53;3.90;;;1.87;;
77938;SDS011;67136;47.546;21.630;2023-05-14T10:20:11;3.45;;;2.00;;
77938;SDS011;67136;47.546;21.630;2023-05-14T10:23:21;2.40;;;2.00;;
77938;SDS011;67136;47.546;21.630;2023-05-14T10:26:43;3.37;;;2.08;;
77938;SDS011;67136;47.546;21.630;2023-05-14T10:30:09;2.40;;;1.62;;
77938;SDS011;67136;47.546;21.630;2023-05-14T10:33:44;4.05;;;2.00;;
77938;SDS011;67136;47.546;21.630;2023-05-14T10:37:37;3.12;;;2.00;;
77938;SDS011;67136;47.546;21.630;2023-05-14T10:40:50;7.80;;;2.20;;
77938;SDS011;67136;47.546;21.630;2023-05-14T10:44:07;3.33;;;1.90;;
77938;SDS011;67136;47.546;21.630;2023-05-14T10:47:51;4.15;;;1.70;;
77938;SDS011;67136;47.546;21.630;2023-05-14T10:51:09;4.32;;;1.80;;
77938;SDS011;67136;47.546;21.630;2023-05-14T10:54:15;2.87;;;2.22;;
77938;SDS011;67136;47.546;21.630;2023-05-14T10:57:31;2.43;;;1.67;;
77938;SDS011;67136;47.546;21.630;2023-05-14T11:01:09;3.10;;;2.10;;
77938;SDS011;67136;47.546;21.630;2023-05-14T11:04:17;4.50;;;1.87;;
77938;SDS011;67136;47.546;21.630;2023-05-14T11:07:33;3.42;;;2.15;;
77938;SDS011;67136;47.546;21.630;2023-05-14T11:10:57;8.07;;;2.00;;
77938;SDS011;67136;47.546;21.630;2023-05-14T11:14:39;5.30;;;2.40;;
77938;SDS011;67136;47.546;21.630;2023-05-14T11:17:51;2.35;;;1.70;;
77938;SDS011;67136;47.546;21.630;2023-05-14T11:21:18;3.92;;;1.87;;
77938;SDS011;67136;47.546;21.630;2023-05-14T11:24:37;2.50;;;1.98;;
77938;SDS011;67136;47.546;21.630;2023-05-14T11:27:44;3.80;;;1.60;;
77938;SDS011;67136;47.546;21.630;2023-05-14T11:30:59;4.90;;;2.10;;
77938;SDS011;67136;47.546;21.630;2023-05-14T11:34:15;6.65;;;2.10;;
77938;SDS011;67136;47.546;21.630;2023-05-14T11:37:30;2.90;;;2.08;;
77938;SDS011;67136;47.546;21.630;2023-05-14T11:44:16;2.45;;;1.77;;
77938;SDS011;67136;47.546;21.630;2023-05-14T11:47:52;2.90;;;1.80;;
77938;SDS011;67136;47.546;21.630;2023-05-14T11:51:06;3.87;;;2.03;;
77938;SDS011;67136;47.546;21.630;2023-05-14T11:54:22;4.55;;;2.00;;
77938;SDS011;67136;47.546;21.630;2023-05-14T11:57:40;2.78;;;2.03;;
77938;SDS011;67136;47.546;21.630;2023-05-14T12:01:12;7.47;;;3.45;;
77938;SDS011;67136;47.546;21.630;2023-05-14T12:04:58;5.73;;;3.33;;
77938;SDS011;67136;47.546;21.630;2023-05-14T12:08:20;4.47;;;2.35;;
77938;SDS011;67136;47.546;21.630;2023-05-14T12:11:27;5.47;;;2.12;;
77938;SDS011;67136;47.546;21.630;2023-05-14T12:14:53;3.17;;;2.10;;
77938;SDS011;67136;47.546;21.630;2023-05-14T12:18:17;5.25;;;1.90;;
77938;SDS011;67136;47.546;21.630;2023-05-14T12:21:33;6.20;;;1.97;;
77938;SDS011;67136;47.546;21.630;2023-05-14T12:24:53;4.55;;;2.30;;
77938;SDS011;67136;47.546;21.630;2023-05-14T12:28:13;3.05;;;2.12;;
77938;SDS011;67136;47.546;21.630;2023-05-14T12:31:32;11.45;;;5.95;;
77938;SDS011;67136;47.546;21.630;2023-05-14T12:34:48;8.10;;;4.30;;
77938;SDS011;67136;47.546;21.630;2023-05-14T12:37:58;6.37;;;2.40;;
77938;SDS011;67136;47.546;21.630;2023-05-14T12:41:11;3.80;;;2.10;;
77938;SDS011;67136;47.546;21.630;2023-05-14T12:44:30;5.55;;;2.53;;
77938;SDS011;67136;47.546;21.630;2023-05-14T12:47:45;5.45;;;2.20;;
77938;SDS011;67136;47.546;21.630;2023-05-14T12:51:12;3.75;;;2.08;;
77938;SDS011;67136;47.546;21.630;2023-05-14T12:54:27;4.57;;;1.90;;
77938;SDS011;67136;47.546;21.630;2023-05-14T12:57:34;3.53;;;1.75;;
77938;SDS011;67136;47.546;21.630;2023-05-14T13:00:44;4.05;;;1.77;;
77938;SDS011;67136;47.546;21.630;2023-05-14T13:07:57;4.93;;;2.10;;
77938;SDS011;67136;47.546;21.630;2023-05-14T13:11:22;4.10;;;2.03;;
77938;SDS011;67136;47.546;21.630;2023-05-14T13:14:38;4.57;;;2.15;;
77938;SDS011;67136;47.546;21.630;2023-05-14T13:18:00;2.87;;;2.28;;
77938;SDS011;67136;47.546;21.630;2023-05-14T13:21:14;3.33;;;2.15;;
77938;SDS011;67136;47.546;21.630;2023-05-14T13:24:22;4.05;;;2.28;;
77938;SDS011;67136;47.546;21.630;2023-05-14T13:27:41;3.40;;;2.27;;
77938;SDS011;67136;47.546;21.630;2023-05-14T13:31:12;5.05;;;2.80;;
77938;SDS011;67136;47.546;21.630;2023-05-14T13:34:22;4.10;;;2.47;;
77938;SDS011;67136;47.546;21.630;2023-05-14T13:37:41;4.03;;;2.58;;
77938;SDS011;67136;47.546;21.630;2023-05-14T13:44:39;4.40;;;2.77;;
77938;SDS011;67136;47.546;21.630;2023-05-14T13:48:24;7.97;;;3.17;;
77938;SDS011;67136;47.546;21.630;2023-05-14T13:51:49;7.12;;;3.10;;
77938;SDS011;67136;47.546;21.630;2023-05-14T13:55:09;4.37;;;3.10;;
77938;SDS011;67136;47.546;21.630;2023-05-14T13:58:27;4.37;;;2.90;;
77938;SDS011;67136;47.546;21.630;2023-05-14T14:01:37;6.53;;;3.00;;
77938;SDS011;67136;47.546;21.630;2023-05-14T14:04:56;4.03;;;2.90;;
77938;SDS011;67136;47.546;21.630;2023-05-14T14:08:21;4.55;;;2.58;;
77938;SDS011;67136;47.546;21.630;2023-05-14T14:11:47;4.60;;;2.60;;
77938;SDS011;67136;47.546;21.630;2023-05-14T14:15:05;4.43;;;2.90;;
77938;SDS011;67136;47.546;21.630;2023-05-14T14:18:37;3.97;;;2.57;;
77938;SDS011;67136;47.546;21.630;2023-05-14T14:21:46;4.75;;;3.03;;
77938;SDS011;67136;47.546;21.630;2023-05-14T14:25:19;6.85;;;3.22;;
77938;SDS011;67136;47.546;21.630;2023-05-14T14:28:41;4.37;;;3.00;;
77938;SDS011;67136;47.546;21.630;2023-05-14T14:32:01;5.18;;;3.10;;
77938;SDS011;67136;47.546;21.630;2023-05-14T14:35:43;6.67;;;3.23;;
77938;SDS011;67136;47.546;21.630;2023-05-14T14:38:59;4.37;;;3.28;;
77938;SDS011;67136;47.546;21.630;2023-05-14T14:42:07;3.78;;;3.03;;
77938;SDS011;67136;47.546;21.630;2023-05-14T14:45:43;5.95;;;2.90;;
77938;SDS011;67136;47.546;21.630;2023-05-14T14:49:05;5.87;;;3.08;;
77938;SDS011;67136;47.546;21.630;2023-05-14T14:52:16;4.80;;;2.90;;
77938;SDS011;67136;47.546;21.630;2023-05-14T14:55:31;4.47;;;2.70;;
77938;SDS011;67136;47.546;21.630;2023-05-14T14:58:39;4.72;;;3.00;;
77938;SDS011;67136;47.546;21.630;2023-05-14T15:02:01;5.87;;;3.28;;
77938;SDS011;67136;47.546;21.630;2023-05-14T15:05:21;5.00;;;3.30;;
77938;SDS011;67136;47.546;21.630;2023-05-14T15:09:22;5.67;;;3.20;;
77938;SDS011;67136;47.546;21.630;2023-05-14T15:12:43;6.72;;;3.35;;
77938;SDS011;67136;47.546;21.630;2023-05-14T15:16:09;7.57;;;3.10;;
77938;SDS011;67136;47.546;21.630;2023-05-14T15:19:28;4.68;;;2.70;;
77938;SDS011;67136;47.546;21.630;2023-05-14T15:22:39;9.88;;;3.60;;
77938;SDS011;67136;47.546;21.630;2023-05-14T15:25:54;8.03;;;3.43;;
77938;SDS011;67136;47.546;21.630;2023-05-14T15:29:25;6.03;;;3.80;;
77938;SDS011;67136;47.546;21.630;2023-05-14T15:32:35;4.65;;;3.10;;
77938;SDS011;67136;47.546;21.630;2023-05-14T15:36:06;8.15;;;3.42;;
77938;SDS011;67136;47.546;21.630;2023-05-14T15:39:27;6.37;;;3.53;;
77938;SDS011;67136;47.546;21.630;2023-05-14T15:42:51;6.30;;;3.67;;
77938;SDS011;67136;47.546;21.630;2023-05-14T15:46:04;6.10;;;3.45;;
77938;SDS011;67136;47.546;21.630;2023-05-14T15:49:34;6.60;;;3.67;;
77938;SDS011;67136;47.546;21.630;2023-05-14T15:52:53;6.10;;;3.87;;
77938;SDS011;67136;47.546;21.630;2023-05-14T15:56:04;6.22;;;3.62;;
77938;SDS011;67136;47.546;21.630;2023-05-14T15:59:24;5.10;;;3.53;;
77938;SDS011;67136;47.546;21.630;2023-05-14T16:06:00;5.37;;;3.20;;
77938;SDS011;67136;47.546;21.630;2023-05-14T16:09:23;6.32;;;3.50;;
77938;SDS011;67136;47.546;21.630;2023-05-14T16:12:49;7.55;;;4.22;;
77938;SDS011;67136;47.546;21.630;2023-05-14T16:15:55;6.57;;;3.93;;
77938;SDS011;67136;47.546;21.630;2023-05-14T16:19:21;7.32;;;3.90;;
77938;SDS011;67136;47.546;21.630;2023-05-14T16:22:36;7.10;;;4.07;;
77938;SDS011;67136;47.546;21.630;2023-05-14T16:26:04;6.82;;;4.57;;
77938;SDS011;67136;47.546;21.630;2023-05-14T16:29:28;10.43;;;4.10;;
77938;SDS011;67136;47.546;21.630;2023-05-14T16:32:45;7.90;;;4.30;;
77938;SDS011;67136;47.546;21.630;2023-05-14T16:36:09;11.95;;;4.70;;
77938;SDS011;67136;47.546;21.630;2023-05-14T16:39:28;6.25;;;4.75;;
77938;SDS011;67136;47.546;21.630;2023-05-14T16:42:56;9.43;;;4.45;;
77938;SDS011;67136;47.546;21.630;2023-05-14T16:46:11;9.38;;;4.45;;
77938;SDS011;67136;47.546;21.630;2023-05-14T16:49:39;6.50;;;4.40;;
77938;SDS011;67136;47.546;21.630;2023-05-14T16:52:59;7.28;;;4.85;;
77938;SDS011;67136;47.546;21.630;2023-05-14T16:56:09;6.68;;;4.97;;
77938;SDS011;67136;47.546;21.630;2023-05-14T16:59:20;8.75;;;4.62;;
77938;SDS011;67136;47.546;21.630;2023-05-14T17:02:36;8.00;;;5.32;;
77938;SDS011;67136;47.546;21.630;2023-05-14T17:05:45;7.90;;;5.03;;
77938;SDS011;67136;47.546;21.630;2023-05-14T17:08:57;9.13;;;5.78;;
77938;SDS011;67136;47.546;21.630;2023-05-14T17:12:24;9.00;;;5.53;;
77938;SDS011;67136;47.546;21.630;2023-05-14T17:15:48;8.70;;;5.87;;
77938;SDS011;67136;47.546;21.630;2023-05-14T17:19:12;10.57;;;5.80;;
77938;SDS011;67136;47.546;21.630;2023-05-14T17:25:51;10.07;;;5.53;;
77938;SDS011;67136;47.546;21.630;2023-05-14T17:28:57;11.23;;;5.93;;
77938;SDS011;67136;47.546;21.630;2023-05-14T17:35:39;20.02;;;10.68;;
77938;SDS011;67136;47.546;21.630;2023-05-14T17:38:56;15.67;;;8.67;;
77938;SDS011;67136;47.546;21.630;2023-05-14T17:42:06;11.82;;;7.15;;
77938;SDS011;67136;47.546;21.630;2023-05-14T17:45:31;10.43;;;7.12;;
77938;SDS011;67136;47.546;21.630;2023-05-14T17:48:58;8.63;;;5.70;;
77938;SDS011;67136;47.546;21.630;2023-05-14T17:52:19;10.03;;;6.20;;
77938;SDS011;67136;47.546;21.630;2023-05-14T17:55:32;9.67;;;6.53;;
77938;SDS011;67136;47.546;21.630;2023-05-14T17:59:03;7.72;;;6.15;;
77938;SDS011;67136;47.546;21.630;2023-05-14T18:02:25;10.05;;;6.03;;
77938;SDS011;67136;47.546;21.630;2023-05-14T18:05:41;10.73;;;6.32;;
77938;SDS011;67136;47.546;21.630;2023-05-14T18:09:02;10.77;;;7.00;;
77938;SDS011;67136;47.546;21.630;2023-05-14T18:12:24;11.20;;;6.80;;
77938;SDS011;67136;47.546;21.630;2023-05-14T18:15:34;10.02;;;7.30;;
77938;SDS011;67136;47.546;21.630;2023-05-14T18:18:49;11.18;;;8.00;;
77938;SDS011;67136;47.546;21.630;2023-05-14T18:21:57;10.43;;;7.53;;
77938;SDS011;67136;47.546;21.630;2023-05-14T18:25:31;13.63;;;8.10;;
77938;SDS011;67136;47.546;21.630;2023-05-14T18:28:52;12.70;;;8.07;;
77938;SDS011;67136;47.546;21.630;2023-05-14T18:32:08;13.05;;;8.10;;
77938;SDS011;67136;47.546;21.630;2023-05-14T18:35:42;11.27;;;8.35;;
77938;SDS011;67136;47.546;21.630;2023-05-14T18:38:51;12.98;;;8.85;;
77938;SDS011;67136;47.546;21.630;2023-05-14T18:42:04;12.13;;;8.33;;
77938;SDS011;67136;47.546;21.630;2023-05-14T18:45:30;11.57;;;8.30;;
77938;SDS011;67136;47.546;21.630;2023-05-14T18:48:44;10.40;;;7.85;;
77938;SDS011;67136;47.546;21.630;2023-05-14T18:52:22;12.73;;;9.02;;
77938;SDS011;67136;47.546;21.630;2023-05-14T18:55:48;13.43;;;9.13;;
77938;SDS011;67136;47.546;21.630;2023-05-14T18:59:00;13.77;;;8.93;;
77938;SDS011;67136;47.546;21.630;2023-05-14T19:02:13;12.60;;;8.23;;
77938;SDS011;67136;47.546;21.630;2023-05-14T19:05:28;12.35;;;8.57;;
77938;SDS011;67136;47.546;21.630;2023-05-14T19:08:40;14.13;;;8.50;;
77938;SDS011;67136;47.546;21.630;2023-05-14T19:12:45;10.68;;;7.80;;
77938;SDS011;67136;47.546;21.630;2023-05-14T19:15:53;17.20;;;8.67;;
77938;SDS011;67136;47.546;21.630;2023-05-14T19:18:58;11.33;;;7.97;;
77938;SDS011;67136;47.546;21.630;2023-05-14T19:22:07;12.45;;;8.10;;
77938;SDS011;67136;47.546;21.630;2023-05-14T19:25:50;10.45;;;7.53;;
77938;SDS011;67136;47.546;21.630;2023-05-14T19:29:17;11.32;;;7.37;;
77938;SDS011;67136;47.546;21.630;2023-05-14T19:32:55;12.53;;;7.63;;
77938;SDS011;67136;47.546;21.630;2023-05-14T19:36:02;14.20;;;7.23;;
77938;SDS011;67136;47.546;21.630;2023-05-14T19:39:38;10.90;;;7.15;;
77938;SDS011;67136;47.546;21.630;2023-05-14T19:42:53;10.15;;;6.60;;
77938;SDS011;67136;47.546;21.630;2023-05-14T19:46:08;12.57;;;6.18;;
77938;SDS011;67136;47.546;21.630;2023-05-14T19:49:21;8.37;;;6.00;;
77938;SDS011;67136;47.546;21.630;2023-05-14T19:52:42;8.73;;;6.00;;
77938;SDS011;67136;47.546;21.630;2023-05-14T19:55:59;10.10;;;6.10;;
77938;SDS011;67136;47.546;21.630;2023-05-14T19:59:31;11.15;;;6.78;;
77938;SDS011;67136;47.546;21.630;2023-05-14T20:06:21;9.40;;;6.70;;
77938;SDS011;67136;47.546;21.630;2023-05-14T20:09:46;11.30;;;6.37;;
77938;SDS011;67136;47.546;21.630;2023-05-14T20:13:16;11.55;;;6.97;;
77938;SDS011;67136;47.546;21.630;2023-05-14T20:16:43;9.18;;;6.50;;
77938;SDS011;67136;47.546;21.630;2023-05-14T20:20:09;8.70;;;5.65;;
77938;SDS011;67136;47.546;21.630;2023-05-14T20:23:37;8.33;;;5.53;;
77938;SDS011;67136;47.546;21.630;2023-05-14T20:27:25;7.73;;;4.67;;
77938;SDS011;67136;47.546;21.630;2023-05-14T20:30:37;9.10;;;5.50;;
77938;SDS011;67136;47.546;21.630;2023-05-14T20:34:27;8.18;;;4.90;;
77938;SDS011;67136;47.546;21.630;2023-05-14T20:37:39;7.82;;;5.55;;
77938;SDS011;67136;47.546;21.630;2023-05-14T20:41:11;7.63;;;5.30;;
77938;SDS011;67136;47.546;21.630;2023-05-14T20:44:26;7.40;;;5.30;;
77938;SDS011;67136;47.546;21.630;2023-05-14T20:47:47;6.18;;;4.68;;
77938;SDS011;67136;47.546;21.630;2023-05-14T20:51:06;7.43;;;4.95;;